createdAt,value
2023-04-14T00:00:51.453Z,7.02
2023-04-14T00:03:19.962Z,7.02
2023-04-14T00:05:48.219Z,7.03
2023-04-14T00:08:17.409Z,7.02
2023-04-14T00:10:45.796Z,7.01
2023-04-14T00:13:14.381Z,7.00
2023-04-14T00:15:42.784Z,7.00
2023-04-14T00:18:11.282Z,7.02
2023-04-14T00:20:39.512Z,7.04
2023-04-14T00:23:08.010Z,7.06
2023-04-14T00:25:36.477Z,7.08
2023-04-14T00:28:05.055Z,7.10
2023-04-14T00:30:33.354Z,7.13
2023-04-14T00:33:01.915Z,7.19
2023-04-14T00:35:32.712Z,7.25
2023-04-14T00:38:01.131Z,7.29
2023-04-14T00:40:31.665Z,7.33
2023-04-14T00:43:00.557Z,7.37
2023-04-14T00:45:29.345Z,7.41
2023-04-14T00:47:58.734Z,7.42
2023-04-14T00:50:27.233Z,7.41
2023-04-14T00:52:57.002Z,7.38
2023-04-14T00:55:25.730Z,7.34
2023-04-14T00:57:55.141Z,7.28
2023-04-14T01:00:23.626Z,7.23
2023-04-14T01:02:52.046Z,7.18
2023-04-14T01:05:20.716Z,7.14
2023-04-14T01:07:49.774Z,7.10
2023-04-14T01:10:18.064Z,7.05
2023-04-14T01:13:38.350Z,7.01
2023-04-14T01:16:18.209Z,6.97
2023-04-14T01:18:58.030Z,6.93
2023-04-14T01:21:33.315Z,6.89
2023-04-14T01:24:13.641Z,6.87
2023-04-14T01:26:42.838Z,6.86
2023-04-14T01:29:55.885Z,6.85
2023-04-14T01:32:27.648Z,6.84
2023-04-14T01:35:05.897Z,6.86
2023-04-14T01:37:41.280Z,6.87
2023-04-14T01:40:14.570Z,6.88
2023-04-14T01:42:59.635Z,6.90
2023-04-14T01:45:34.246Z,6.93
2023-04-14T01:48:03.851Z,6.96
2023-04-14T01:50:34.783Z,7.00
2023-04-14T01:53:07.287Z,7.03
2023-04-14T01:55:38.054Z,7.06
2023-04-14T01:58:07.636Z,7.10
2023-04-14T02:00:37.347Z,7.14
2023-04-14T02:03:06.924Z,7.18
2023-04-14T02:05:38.364Z,7.19
2023-04-14T02:08:12.820Z,7.18
2023-04-14T02:10:46.148Z,7.17
2023-04-14T02:13:17.791Z,7.14
2023-04-14T02:15:49.402Z,7.12
2023-04-14T02:18:23.747Z,7.08
2023-04-14T02:20:54.176Z,7.04
2023-04-14T02:23:22.458Z,6.97
2023-04-14T02:26:05.069Z,6.92
2023-04-14T02:28:38.766Z,6.87
2023-04-14T02:31:11.834Z,6.81
2023-04-14T02:33:41.160Z,6.75
2023-04-14T02:36:24.788Z,6.71
2023-04-14T02:39:04.740Z,6.65
2023-04-14T02:41:33.731Z,6.59
2023-04-14T02:44:10.936Z,6.56
2023-04-14T02:46:42.899Z,6.54
2023-04-14T02:49:14.859Z,6.54
2023-04-14T02:51:46.880Z,6.55
2023-04-14T02:54:19.030Z,6.58
2023-04-14T02:56:49.133Z,6.61
2023-04-14T02:59:18.779Z,6.64
2023-04-14T03:01:55.256Z,6.66
2023-04-14T03:04:25.157Z,6.68
2023-04-14T03:06:55.981Z,6.71
2023-04-14T03:09:25.732Z,6.74
2023-04-14T03:11:56.139Z,6.74
2023-04-14T03:14:27.414Z,6.74
2023-04-14T03:16:57.331Z,6.76
2023-04-14T03:19:28.241Z,6.77
2023-04-14T03:21:58.922Z,6.77
2023-04-14T03:24:31.158Z,6.75
2023-04-14T03:27:05.877Z,6.72
2023-04-14T03:29:43.619Z,6.71
2023-04-14T03:32:13.927Z,6.69
2023-04-14T03:34:43.731Z,6.67
2023-04-14T03:37:18.221Z,6.66
2023-04-14T03:39:50.879Z,6.65
2023-04-14T03:42:25.181Z,6.66
2023-04-14T03:44:57.011Z,6.69
2023-04-14T03:47:28.783Z,6.71
2023-04-14T03:50:04.452Z,6.75
2023-04-14T03:52:36.025Z,6.81
2023-04-14T03:55:07.569Z,6.88
2023-04-14T03:57:37.756Z,6.96
2023-04-14T04:00:09.389Z,7.04
2023-04-14T04:02:46.606Z,7.12
2023-04-14T04:05:16.017Z,7.20
2023-04-14T04:07:46.053Z,7.29
2023-04-14T04:10:16.651Z,7.38
2023-04-14T04:12:47.430Z,7.48
2023-04-14T04:15:16.877Z,7.59
2023-04-14T04:17:49.202Z,7.70
2023-04-14T04:20:19.650Z,7.81
2023-04-14T04:22:52.142Z,7.96
2023-04-14T04:25:20.855Z,8.12
2023-04-14T04:27:57.843Z,8.31
2023-04-14T04:30:28.662Z,8.53
2023-04-14T04:32:57.617Z,8.74
2023-04-14T04:35:29.144Z,8.95
2023-04-14T04:38:01.038Z,9.18
2023-04-14T04:40:36.555Z,9.38
2023-04-14T04:43:05.889Z,9.58
2023-04-14T04:45:56.589Z,9.74
2023-04-14T04:48:25.511Z,9.94
2023-04-14T04:50:53.791Z,10.23
2023-04-14T04:53:21.957Z,10.54
2023-04-14T04:55:50.488Z,10.93
2023-04-14T04:58:18.730Z,11.53
2023-04-14T05:00:47.517Z,12.11
2023-04-14T05:03:16.899Z,12.52
2023-04-14T05:05:45.705Z,12.93
2023-04-14T05:08:15.221Z,13.34
2023-04-14T05:10:44.512Z,13.86
2023-04-14T05:13:12.794Z,14.35
2023-04-14T05:15:40.879Z,14.82
2023-04-14T05:18:09.239Z,15.20
2023-04-14T05:20:37.516Z,15.47
2023-04-14T05:23:05.895Z,15.82
2023-04-14T05:25:36.526Z,16.26
2023-04-14T05:28:04.699Z,16.69
2023-04-14T05:30:32.978Z,16.98
2023-04-14T05:33:01.297Z,17.28
2023-04-14T05:35:29.941Z,17.52
2023-04-14T05:37:58.322Z,17.73
2023-04-14T05:40:27.048Z,18.04
2023-04-14T05:42:57.029Z,18.11
2023-04-14T05:45:25.824Z,18.12
2023-04-14T05:47:54.191Z,18.29
2023-04-14T05:50:22.778Z,18.23
2023-04-14T05:52:52.233Z,17.71
2023-04-14T05:55:21.282Z,17.29
2023-04-14T05:57:49.656Z,17.20
2023-04-14T06:00:18.644Z,17.40
2023-04-14T06:02:47.085Z,17.72
2023-04-14T06:05:15.831Z,18.10
2023-04-14T06:07:44.334Z,18.32
2023-04-14T06:10:13.339Z,18.54
2023-04-14T06:12:41.532Z,18.74
2023-04-14T06:15:10.354Z,19.00
2023-04-14T06:17:40.020Z,19.40
2023-04-14T06:20:09.369Z,19.67
2023-04-14T06:22:37.643Z,19.85
2023-04-14T06:25:06.639Z,20.11
2023-04-14T06:27:35.020Z,20.37
2023-04-14T06:30:03.856Z,20.51
2023-04-14T06:32:32.112Z,20.72
2023-04-14T06:35:01.289Z,20.94
2023-04-14T06:37:29.554Z,20.90
2023-04-14T06:39:58.140Z,21.08
2023-04-14T06:42:26.513Z,21.26
2023-04-14T06:44:55.012Z,21.52
2023-04-14T06:47:23.844Z,21.61
2023-04-14T06:49:52.276Z,21.85
2023-04-14T06:52:20.550Z,22.00
2023-04-14T06:54:48.820Z,22.12
2023-04-14T06:57:17.229Z,22.22
2023-04-14T06:59:46.714Z,22.28
2023-04-14T07:02:15.276Z,22.39
2023-04-14T07:04:43.912Z,22.64
2023-04-14T07:07:14.520Z,22.74
2023-04-14T07:09:43.758Z,22.82
2023-04-14T07:12:16.050Z,22.83
2023-04-14T07:14:51.237Z,22.88
2023-04-14T07:17:20.473Z,23.03
2023-04-14T07:19:48.689Z,22.86
2023-04-14T07:22:17.275Z,22.82
2023-04-14T07:24:45.653Z,22.76
2023-04-14T07:27:15.751Z,22.85
2023-04-14T07:29:44.262Z,23.07
2023-04-14T07:32:13.588Z,23.18
2023-04-14T07:34:44.153Z,23.34
2023-04-14T07:37:12.363Z,23.22
2023-04-14T07:39:41.182Z,22.95
2023-04-14T07:42:09.524Z,22.73
2023-04-14T07:44:38.228Z,22.57
2023-04-14T07:47:06.589Z,22.53
2023-04-14T07:49:35.654Z,22.59
2023-04-14T07:52:03.965Z,22.66
2023-04-14T07:54:32.347Z,22.75
2023-04-14T07:57:01.055Z,22.82
2023-04-14T07:59:29.442Z,22.70
2023-04-14T08:01:58.725Z,22.61
2023-04-14T08:04:27.476Z,22.55
2023-04-14T08:06:55.756Z,22.54
2023-04-14T08:09:24.052Z,22.54
2023-04-14T08:11:52.416Z,22.39
2023-04-14T08:14:21.321Z,22.45
2023-04-14T08:16:49.746Z,22.64
2023-04-14T08:19:18.078Z,22.89
2023-04-14T08:21:46.353Z,23.13
2023-04-14T08:24:14.737Z,23.27
2023-04-14T08:26:42.906Z,23.29
2023-04-14T08:29:13.642Z,23.31
2023-04-14T08:31:41.851Z,23.32
2023-04-14T08:34:10.096Z,23.36
2023-04-14T08:36:38.880Z,23.40
2023-04-14T08:39:07.569Z,23.33
2023-04-14T08:41:39.017Z,23.11
2023-04-14T08:44:08.087Z,22.81
2023-04-14T08:46:36.674Z,22.43
2023-04-14T08:49:17.467Z,22.11
2023-04-14T08:51:47.452Z,22.02
2023-04-14T08:54:17.142Z,21.89
2023-04-14T08:56:46.689Z,21.67
2023-04-14T08:59:15.186Z,21.49
2023-04-14T09:01:44.078Z,21.56
2023-04-14T09:04:14.655Z,21.84
2023-04-14T09:06:43.295Z,22.24
2023-04-14T09:09:11.673Z,22.59
2023-04-14T09:11:41.547Z,22.76
2023-04-14T09:14:11.637Z,22.98
2023-04-14T09:16:39.956Z,23.22
2023-04-14T09:19:09.400Z,23.63
2023-04-14T09:21:53.406Z,23.85
2023-04-14T09:24:34.153Z,24.09
2023-04-14T09:27:05.350Z,24.22
2023-04-14T09:29:34.354Z,24.49
2023-04-14T09:32:04.200Z,24.75
2023-04-14T09:34:32.833Z,24.82
2023-04-14T09:37:09.815Z,24.75
2023-04-14T09:39:49.413Z,24.49
2023-04-14T09:42:18.393Z,24.16
2023-04-14T09:44:57.936Z,23.89
2023-04-14T09:47:26.968Z,23.52
2023-04-14T09:49:59.073Z,23.22
2023-04-14T09:52:38.602Z,22.93
2023-04-14T09:55:16.969Z,22.70
2023-04-14T09:57:51.949Z,22.62
2023-04-14T10:00:22.321Z,22.72
2023-04-14T10:02:51.217Z,23.05
2023-04-14T10:05:21.183Z,23.41
2023-04-14T10:07:49.560Z,23.70
2023-04-14T10:10:18.334Z,23.77
2023-04-14T10:12:47.131Z,23.68
2023-04-14T10:15:18.518Z,23.50
2023-04-14T10:17:47.603Z,23.16
2023-04-14T10:20:17.414Z,22.81
2023-04-14T10:22:47.000Z,22.47
2023-04-14T10:25:15.790Z,22.20
2023-04-14T10:27:45.529Z,21.97
2023-04-14T10:30:13.986Z,21.80
2023-04-14T10:32:44.859Z,21.68
2023-04-14T10:35:18.688Z,21.52
2023-04-14T10:37:52.156Z,21.36
2023-04-14T10:40:22.827Z,21.21
2023-04-14T10:42:55.759Z,21.05
2023-04-14T10:45:24.329Z,20.89
2023-04-14T10:47:53.273Z,20.79
2023-04-14T10:50:24.318Z,20.72
2023-04-14T10:52:56.546Z,20.69
2023-04-14T10:55:26.602Z,20.71
2023-04-14T10:58:09.057Z,20.71
2023-04-14T11:00:38.753Z,20.73
2023-04-14T11:03:11.951Z,20.77
2023-04-14T11:05:51.718Z,20.79
2023-04-14T11:08:26.824Z,20.81
2023-04-14T11:11:05.212Z,20.88
2023-04-14T11:13:35.032Z,20.89
2023-04-14T11:16:08.200Z,20.90
2023-04-14T11:18:46.373Z,20.96
2023-04-14T11:21:29.915Z,21.15
2023-04-14T11:23:59.467Z,21.44
2023-04-14T11:26:28.107Z,21.86
2023-04-14T11:28:56.905Z,22.17
2023-04-14T11:31:27.855Z,22.47
2023-04-14T11:33:57.041Z,22.75
2023-04-14T11:36:26.067Z,22.99
2023-04-14T11:38:54.498Z,23.24
2023-04-14T11:41:25.970Z,23.42
2023-04-14T11:43:54.532Z,23.44
2023-04-14T11:46:23.522Z,23.42
2023-04-14T11:48:56.162Z,23.32
2023-04-14T11:51:30.575Z,23.14
2023-04-14T11:54:00.541Z,22.92
2023-04-14T11:56:30.754Z,22.65
2023-04-14T11:59:03.671Z,22.44
2023-04-14T12:01:34.138Z,22.25
2023-04-14T12:04:03.361Z,22.08
2023-04-14T12:06:36.421Z,21.88
2023-04-14T12:09:09.149Z,21.70
2023-04-14T12:11:37.339Z,21.61
2023-04-14T12:14:06.032Z,21.52
2023-04-14T12:16:35.258Z,21.52
2023-04-14T12:19:04.916Z,21.57
2023-04-14T12:21:34.117Z,21.69
2023-04-14T12:24:03.908Z,21.86
2023-04-14T12:26:32.768Z,22.00
2023-04-14T12:29:01.634Z,22.23
2023-04-14T12:31:30.748Z,22.39
2023-04-14T12:34:03.821Z,22.48
2023-04-14T12:36:48.812Z,22.55
2023-04-14T12:39:24.645Z,22.65
2023-04-14T12:41:53.922Z,22.79
2023-04-14T12:44:24.547Z,22.92
2023-04-14T12:46:53.755Z,22.96
2023-04-14T12:49:33.393Z,22.98
2023-04-14T12:52:02.100Z,22.98
2023-04-14T12:54:52.887Z,22.94
2023-04-14T12:57:22.356Z,22.95
2023-04-14T12:59:50.907Z,22.99
2023-04-14T13:02:19.586Z,22.97
2023-04-14T13:04:48.343Z,22.89
2023-04-14T13:07:16.651Z,22.84
2023-04-14T13:09:44.768Z,22.71
2023-04-14T13:12:12.990Z,22.65
2023-04-14T13:14:41.449Z,22.57
2023-04-14T13:17:09.988Z,22.46
2023-04-14T13:19:38.924Z,22.42
2023-04-14T13:22:07.303Z,22.40
2023-04-14T13:24:36.613Z,22.35
2023-04-14T13:27:04.892Z,22.34
2023-04-14T13:29:34.326Z,22.32
2023-04-14T13:32:02.632Z,22.27
2023-04-14T13:34:31.158Z,22.30
2023-04-14T13:36:59.645Z,22.30
2023-04-14T13:39:28.529Z,22.32
2023-04-14T13:41:56.799Z,22.29
2023-04-14T13:44:25.489Z,22.24
2023-04-14T13:46:55.505Z,22.20
2023-04-14T13:49:23.786Z,22.14
2023-04-14T13:51:52.057Z,22.10
2023-04-14T13:54:20.438Z,22.02
2023-04-14T13:56:49.852Z,21.83
2023-04-14T13:59:18.435Z,21.69
2023-04-14T14:01:47.438Z,21.64
2023-04-14T14:04:16.770Z,21.64
2023-04-14T14:06:45.938Z,21.66
2023-04-14T14:09:14.203Z,21.70
2023-04-14T14:11:44.571Z,21.73
2023-04-14T14:14:13.109Z,21.78
2023-04-14T14:16:41.897Z,21.79
2023-04-14T14:19:15.129Z,21.82
2023-04-14T14:21:44.889Z,21.94
2023-04-14T14:24:14.128Z,22.07
2023-04-14T14:26:42.265Z,22.12
2023-04-14T14:29:10.629Z,22.11
2023-04-14T14:31:38.898Z,22.16
2023-04-14T14:34:07.604Z,22.20
2023-04-14T14:36:38.852Z,22.21
2023-04-14T14:39:07.538Z,22.18
2023-04-14T14:41:35.737Z,22.12
2023-04-14T14:44:04.680Z,22.07
2023-04-14T14:46:34.278Z,22.03
2023-04-14T14:49:02.688Z,22.04
2023-04-14T14:51:31.909Z,22.04
2023-04-14T14:54:09.370Z,22.01
2023-04-14T14:56:38.721Z,21.95
2023-04-14T14:59:08.778Z,21.92
2023-04-14T15:01:37.404Z,21.89
2023-04-14T15:04:06.687Z,21.85
2023-04-14T15:06:35.917Z,21.77
2023-04-14T15:09:05.628Z,21.71
2023-04-14T15:11:34.049Z,21.65
2023-04-14T15:14:03.551Z,21.59
2023-04-14T15:16:32.305Z,21.53
2023-04-14T15:19:00.574Z,21.51
2023-04-14T15:21:29.147Z,21.51
2023-04-14T15:23:57.322Z,21.49
2023-04-14T15:26:26.094Z,21.45
2023-04-14T15:28:55.448Z,21.43
2023-04-14T15:31:24.135Z,21.40
2023-04-14T15:33:52.691Z,21.34
2023-04-14T15:36:22.470Z,21.30
2023-04-14T15:38:50.951Z,21.26
2023-04-14T15:41:19.679Z,21.24
2023-04-14T15:43:50.880Z,21.22
2023-04-14T15:46:20.131Z,21.18
2023-04-14T15:48:48.698Z,21.16
2023-04-14T15:51:16.967Z,21.14
2023-04-14T15:53:45.142Z,21.11
2023-04-14T15:56:14.236Z,21.04
2023-04-14T15:58:43.130Z,20.96
2023-04-14T16:01:12.573Z,20.88
2023-04-14T16:03:41.795Z,20.79
2023-04-14T16:06:10.329Z,20.73
2023-04-14T16:08:39.044Z,20.67
2023-04-14T16:11:08.012Z,20.62
2023-04-14T16:13:37.318Z,20.56
2023-04-14T16:16:06.729Z,20.51
2023-04-14T16:18:36.935Z,20.45
2023-04-14T16:21:05.713Z,20.39
2023-04-14T16:23:36.690Z,20.33
2023-04-14T16:26:05.239Z,20.28
2023-04-14T16:28:34.065Z,20.22
2023-04-14T16:31:03.325Z,20.17
2023-04-14T16:33:34.480Z,20.11
2023-04-14T16:36:07.337Z,20.05
2023-04-14T16:38:35.949Z,19.98
2023-04-14T16:41:04.532Z,19.79
2023-04-14T16:43:33.326Z,19.46
2023-04-14T16:46:05.551Z,19.06
2023-04-14T16:48:35.880Z,18.71
2023-04-14T16:51:09.256Z,18.35
2023-04-14T16:53:38.995Z,17.98
2023-04-14T16:56:09.070Z,17.67
2023-04-14T16:58:39.072Z,17.38
2023-04-14T17:01:07.976Z,17.13
2023-04-14T17:03:37.019Z,16.85
2023-04-14T17:06:05.721Z,16.65
2023-04-14T17:08:34.600Z,16.45
2023-04-14T17:11:03.597Z,16.29
2023-04-14T17:13:33.202Z,16.17
2023-04-14T17:16:08.384Z,16.10
2023-04-14T17:18:38.567Z,15.99
2023-04-14T17:21:07.750Z,15.89
2023-04-14T17:23:37.803Z,15.81
2023-04-14T17:26:06.508Z,15.71
2023-04-14T17:28:36.063Z,15.64
2023-04-14T17:31:13.352Z,15.61
2023-04-14T17:33:43.113Z,15.56
2023-04-14T17:36:14.459Z,15.53
2023-04-14T17:38:43.797Z,15.49
2023-04-14T17:41:14.149Z,15.46
2023-04-14T17:43:42.719Z,15.44
2023-04-14T17:46:11.971Z,15.39
2023-04-14T17:48:40.714Z,15.35
2023-04-14T17:51:09.106Z,15.28
2023-04-14T17:53:37.770Z,15.16
2023-04-14T17:56:07.919Z,15.03
2023-04-14T17:58:36.738Z,14.83
2023-04-14T18:01:05.281Z,14.61
2023-04-14T18:03:33.689Z,14.40
2023-04-14T18:06:04.189Z,14.23
2023-04-14T18:08:32.520Z,14.10
2023-04-14T18:11:01.033Z,13.99
2023-04-14T18:13:30.127Z,13.90
2023-04-14T18:15:58.302Z,13.81
2023-04-14T18:18:29.275Z,13.73
2023-04-14T18:20:58.448Z,13.67
2023-04-14T18:23:26.844Z,13.62
2023-04-14T18:28:36.010Z,13.53
2023-04-14T18:31:05.009Z,13.49
2023-04-14T18:33:33.988Z,13.45
2023-04-14T18:36:03.498Z,13.42
2023-04-14T18:38:32.386Z,13.39
2023-04-14T18:41:03.725Z,13.36
2023-04-14T18:43:33.384Z,13.32
2023-04-14T18:46:02.631Z,13.29
2023-04-14T18:48:33.582Z,13.28
2023-04-14T18:51:08.124Z,13.26
2023-04-14T18:53:37.276Z,13.25
2023-04-14T18:56:06.777Z,13.24
2023-04-14T18:58:35.364Z,13.25
2023-04-14T19:01:03.893Z,13.26
2023-04-14T19:03:32.508Z,13.28
2023-04-14T19:06:01.771Z,13.28
2023-04-14T19:08:30.821Z,13.28
2023-04-14T19:10:59.510Z,13.28
2023-04-14T19:13:27.907Z,13.29
2023-04-14T19:16:09.263Z,13.29
2023-04-14T19:18:37.451Z,13.29
2023-04-14T19:21:10.042Z,13.28
2023-04-14T19:23:39.991Z,13.29
2023-04-14T19:26:10.469Z,13.28
2023-04-14T19:28:40.398Z,13.29
2023-04-14T19:31:08.856Z,13.30
2023-04-14T19:33:38.993Z,13.28
2023-04-14T19:36:18.972Z,13.29
2023-04-14T19:38:47.437Z,13.28
2023-04-14T19:41:16.126Z,13.27
2023-04-14T19:43:45.915Z,13.26
2023-04-14T19:46:14.333Z,13.25
2023-04-14T19:48:42.791Z,13.25
2023-04-14T19:51:13.004Z,13.23
2023-04-14T19:53:41.481Z,13.21
2023-04-14T19:56:09.971Z,13.18
2023-04-14T19:58:38.477Z,13.15
2023-04-14T20:01:06.834Z,13.12
2023-04-14T20:03:35.248Z,13.08
2023-04-14T20:06:03.688Z,13.06
2023-04-14T20:08:32.506Z,13.03
2023-04-14T20:11:00.667Z,13.01
2023-04-14T20:13:34.900Z,12.98
2023-04-14T20:16:03.041Z,12.96
2023-04-14T20:18:32.753Z,12.94
2023-04-14T20:21:01.052Z,12.92
2023-04-14T20:23:29.921Z,12.90
2023-04-14T20:25:58.405Z,12.89
2023-04-14T20:28:26.792Z,12.88
2023-04-14T20:30:56.339Z,12.85
2023-04-14T20:33:24.926Z,12.82
2023-04-14T20:35:54.184Z,12.78
2023-04-14T20:38:23.078Z,12.75
2023-04-14T20:40:51.342Z,12.73
2023-04-14T20:43:20.057Z,12.71
2023-04-14T20:45:50.001Z,12.70
2023-04-14T20:48:19.545Z,12.68
2023-04-14T20:50:49.864Z,12.64
2023-04-14T20:53:21.330Z,12.59
2023-04-14T20:55:51.129Z,12.56
2023-04-14T20:58:19.640Z,12.51
2023-04-14T21:00:48.302Z,12.46
2023-04-14T21:03:17.243Z,12.39
2023-04-14T21:05:46.449Z,12.32
2023-04-14T21:08:14.898Z,12.25
2023-04-14T21:11:02.285Z,12.17
2023-04-14T21:15:25.084Z,12.08
2023-04-14T21:16:19.859Z,11.98
2023-04-14T21:18:47.923Z,11.90
2023-04-14T21:21:16.404Z,11.83
2023-04-14T21:23:44.686Z,11.75
2023-04-14T21:26:13.674Z,11.69
2023-04-14T21:28:42.088Z,11.65
2023-04-14T21:31:11.551Z,11.63
2023-04-14T21:33:41.916Z,11.60
2023-04-14T21:36:10.950Z,11.58
2023-04-14T21:38:39.660Z,11.57
2023-04-14T21:41:08.215Z,11.56
2023-04-14T21:43:38.830Z,11.56
2023-04-14T21:46:07.518Z,11.57
2023-04-14T21:48:36.053Z,11.56
2023-04-14T21:51:04.427Z,11.56
2023-04-14T21:53:33.212Z,11.55
2023-04-14T21:56:09.855Z,11.54
2023-04-14T21:58:40.332Z,11.55
2023-04-14T22:01:12.635Z,11.58
2023-04-14T22:03:41.754Z,11.59
2023-04-14T22:06:11.602Z,11.57
2023-04-14T22:08:41.141Z,11.56
2023-04-14T22:11:09.686Z,11.57
2023-04-14T22:13:38.713Z,11.55
2023-04-14T22:16:07.986Z,11.54
2023-04-14T22:18:39.022Z,11.52
2023-04-14T22:21:10.783Z,11.51
2023-04-14T22:23:40.289Z,11.51
2023-04-14T22:26:09.327Z,11.50
2023-04-14T22:28:37.967Z,11.48
2023-04-14T22:31:06.532Z,11.47
2023-04-14T22:33:35.965Z,11.45
2023-04-14T22:36:07.303Z,11.42
2023-04-14T22:38:36.095Z,11.40
2023-04-14T22:41:04.571Z,11.39
2023-04-14T22:43:32.742Z,11.39
2023-04-14T22:46:00.881Z,11.38
2023-04-14T22:48:29.099Z,11.39
2023-04-14T22:50:57.573Z,11.41
2023-04-14T22:53:25.988Z,11.43
2023-04-14T22:55:54.331Z,11.46
2023-04-14T22:58:24.248Z,11.49
2023-04-14T23:00:52.829Z,11.53
2023-04-14T23:03:21.696Z,11.58
2023-04-14T23:05:52.042Z,11.63
2023-04-14T23:08:20.536Z,11.66
2023-04-14T23:10:48.803Z,11.69
2023-04-14T23:13:17.080Z,11.72
2023-04-14T23:15:45.714Z,11.75
2023-04-14T23:18:14.561Z,11.79
2023-04-14T23:20:43.357Z,11.84
2023-04-14T23:23:12.404Z,11.86
2023-04-14T23:25:41.742Z,11.86
2023-04-14T23:28:10.217Z,11.86
2023-04-14T23:30:38.565Z,11.86
2023-04-14T23:33:06.977Z,11.83
2023-04-14T23:35:36.075Z,11.78
2023-04-14T23:38:04.256Z,11.73
2023-04-14T23:40:34.168Z,11.70
2023-04-14T23:43:02.857Z,11.68
2023-04-14T23:45:37.322Z,11.65
2023-04-14T23:48:06.808Z,11.62
2023-04-14T23:51:01.212Z,11.60
2023-04-14T23:53:24.629Z,11.56
2023-04-14T23:55:53.632Z,11.52
2023-04-14T23:58:26.717Z,11.49
